Rose Hill, Illinois
Current Conditions -  °F | °C
As of 6:55 PM on Monday 26 Jan 2015 (Local Time) from K1H2 Reporting Station
Haze Haze  
Wind Chill: 25°   Ceiling: 900
Heat Index: 30°   Visibility: 5mi
Dew Point: 27°   Wind: 5mph
Humidity: 86%   Direction: 140°SE
Pressure: 29.95"   Gusts: NA
Location:  39.1196°N, 88.1333°W
Report Text: K1H2 270055Z AUTO 14004KT 5SM BR OVC009 M01/M03 A2995 RMK AO2 T10101030
Loading
Personal Weather Stations






























Interactive Weather Map New forecast layout! Learn more

10-Day Weather Forecast

Advertisements
Track Severe Weather on mobile